createdAt,value
2022-08-23T00:01:24.328Z,16.58
2022-08-23T00:03:52.049Z,16.95
2022-08-23T00:06:19.242Z,14.77
2022-08-23T00:08:48.576Z,16.83
2022-08-23T00:11:32.149Z,17.38
2022-08-23T00:14:03.289Z,15.00
2022-08-23T00:16:29.776Z,14.35
2022-08-23T00:18:56.597Z,15.73
2022-08-23T00:21:23.542Z,15.60
2022-08-23T00:23:50.004Z,14.13
2022-08-23T00:26:17.889Z,14.35
2022-08-23T00:28:44.352Z,14.98
2022-08-23T00:31:10.853Z,14.18
2022-08-23T00:33:37.328Z,11.18
2022-08-23T00:36:03.996Z,12.73
2022-08-23T00:38:33.027Z,13.02
2022-08-23T00:43:49.119Z,11.25
2022-08-23T00:46:46.069Z,11.65
2022-08-23T00:49:15.862Z,10.20
2022-08-23T00:51:53.127Z,12.80
2022-08-23T00:54:21.990Z,9.45
2022-08-23T00:56:49.893Z,9.25
2022-08-23T00:59:16.363Z,10.23
2022-08-23T01:01:44.143Z,9.52
2022-08-23T01:04:12.913Z,8.85
2022-08-23T01:06:54.960Z,8.75
2022-08-23T01:09:22.304Z,10.20
2022-08-23T01:12:01.335Z,9.32
2022-08-23T01:14:31.242Z,8.98
2022-08-23T01:17:30.616Z,8.15
2022-08-23T01:20:01.487Z,9.00
2022-08-23T01:22:57.351Z,8.55
2022-08-23T01:25:26.136Z,8.90
2022-08-23T01:27:52.904Z,8.82
2022-08-23T01:30:23.843Z,8.75
2022-08-23T01:32:56.940Z,8.63
2022-08-23T01:35:31.295Z,8.38
2022-08-23T01:37:57.817Z,8.20
2022-08-23T01:40:24.496Z,8.68
2022-08-23T01:42:51.017Z,7.97
2022-08-23T01:45:17.621Z,9.85
2022-08-23T01:47:44.122Z,9.10
2022-08-23T01:50:12.998Z,9.23
2022-08-23T01:52:47.068Z,9.68
2022-08-23T01:55:14.622Z,9.57
2022-08-23T01:57:43.207Z,10.23
2022-08-23T02:00:13.719Z,10.18
2022-08-23T02:02:41.452Z,10.40
2022-08-23T02:05:09.471Z,10.07
2022-08-23T02:07:36.234Z,11.07
2022-08-23T02:10:02.897Z,9.95
2022-08-23T02:12:29.864Z,11.32
2022-08-23T02:14:56.725Z,10.80
2022-08-23T02:17:23.229Z,11.05
2022-08-23T02:19:50.719Z,11.65
2022-08-23T02:22:17.423Z,11.50
2022-08-23T02:24:46.339Z,10.88
2022-08-23T02:27:15.303Z,11.20
2022-08-23T02:29:44.499Z,10.88
2022-08-23T02:32:15.235Z,10.57
2022-08-23T02:34:43.000Z,11.93
2022-08-23T02:37:11.058Z,12.35
2022-08-23T02:39:38.880Z,11.45
2022-08-23T02:42:06.944Z,11.38
2022-08-23T02:44:34.722Z,11.75
2022-08-23T02:47:02.313Z,12.00
2022-08-23T02:49:29.422Z,10.40
2022-08-23T02:51:56.522Z,9.27
2022-08-23T02:54:23.393Z,11.38
2022-08-23T02:56:49.952Z,11.35
2022-08-23T02:59:16.390Z,11.73
2022-08-23T03:01:43.083Z,10.77
2022-08-23T03:04:10.706Z,11.73
2022-08-23T03:06:38.435Z,11.95
2022-08-23T03:09:07.195Z,11.98
2022-08-23T03:11:34.180Z,12.65
2022-08-23T03:14:01.274Z,11.88
2022-08-23T03:16:28.677Z,12.07
2022-08-23T03:18:55.264Z,11.40
2022-08-23T03:21:22.421Z,12.30
2022-08-23T03:23:49.129Z,12.50
2022-08-23T03:26:16.128Z,12.60
2022-08-23T03:28:44.219Z,13.65
2022-08-23T03:31:11.333Z,12.60
2022-08-23T03:33:38.389Z,13.43
2022-08-23T03:36:07.519Z,13.13
2022-08-23T03:38:34.434Z,13.05
2022-08-23T03:41:01.614Z,13.88
2022-08-23T03:43:28.363Z,14.00
2022-08-23T03:45:54.846Z,15.05
2022-08-23T03:48:21.765Z,14.75
2022-08-23T03:50:48.307Z,15.10
2022-08-23T03:53:14.923Z,14.90
2022-08-23T03:55:43.034Z,16.30
2022-08-23T03:58:11.225Z,15.10
2022-08-23T04:00:38.662Z,13.77
2022-08-23T04:03:05.484Z,13.02
2022-08-23T04:05:32.016Z,13.13
2022-08-23T04:07:58.990Z,17.08
2022-08-23T04:10:25.826Z,20.70
2022-08-23T04:12:54.751Z,21.48
2022-08-23T04:15:21.361Z,16.42
2022-08-23T04:17:47.858Z,15.05
2022-08-23T04:20:14.505Z,15.15
2022-08-23T04:22:41.021Z,14.20
2022-08-23T04:25:32.986Z,14.07
2022-08-23T04:27:54.837Z,15.82
2022-08-23T04:30:21.475Z,15.80
2022-08-23T04:32:48.286Z,16.67
2022-08-23T04:35:15.861Z,15.88
2022-08-23T04:37:42.634Z,16.83
2022-08-23T04:40:29.619Z,14.00
2022-08-23T04:42:56.413Z,14.32
2022-08-23T04:45:23.193Z,14.95
2022-08-23T04:47:49.798Z,14.60
2022-08-23T04:50:16.883Z,15.25
2022-08-23T04:52:43.441Z,15.73
2022-08-23T04:55:10.018Z,14.90
2022-08-23T04:57:36.618Z,15.60
2022-08-23T05:00:04.422Z,16.80
2022-08-23T05:02:30.877Z,15.32
2022-08-23T05:04:57.415Z,16.08
2022-08-23T05:07:31.024Z,15.90
2022-08-23T05:10:13.429Z,15.48
2022-08-23T05:12:40.455Z,15.38
2022-08-23T05:15:08.789Z,14.93
2022-08-23T05:17:36.377Z,15.85
2022-08-23T05:20:05.099Z,17.98
2022-08-23T05:22:38.198Z,15.57
2022-08-23T05:25:05.452Z,16.40
2022-08-23T05:27:31.944Z,16.65
2022-08-23T05:29:58.441Z,16.63
2022-08-23T05:32:25.124Z,16.63
2022-08-23T05:34:51.621Z,16.73
2022-08-23T05:37:18.669Z,16.52
2022-08-23T05:39:45.226Z,16.17
2022-08-23T05:42:14.628Z,15.45
2022-08-23T05:44:41.650Z,17.75
2022-08-23T05:47:12.327Z,16.52
2022-08-23T05:49:39.579Z,15.30
2022-08-23T05:52:08.189Z,15.93
2022-08-23T05:54:35.979Z,16.55
2022-08-23T05:57:02.496Z,16.02
2022-08-23T05:59:29.184Z,13.85
2022-08-23T06:01:56.458Z,14.10
2022-08-23T06:04:23.345Z,12.82
2022-08-23T06:06:49.810Z,11.32
2022-08-23T06:09:18.206Z,11.20
2022-08-23T06:11:46.644Z,10.85
2022-08-23T06:14:14.524Z,10.90
2022-08-23T06:16:44.070Z,11.48
2022-08-23T06:19:11.389Z,10.90
2022-08-23T06:21:38.580Z,13.30
2022-08-23T06:24:07.064Z,11.23
2022-08-23T06:26:36.898Z,7.43
2022-08-23T06:29:07.216Z,12.45
2022-08-23T06:31:49.249Z,11.07
2022-08-23T06:34:23.254Z,10.10
2022-08-23T06:36:52.847Z,11.90
2022-08-23T06:39:21.499Z,10.43
2022-08-23T06:41:51.163Z,10.20
2022-08-23T06:44:18.518Z,11.93
2022-08-23T06:46:47.922Z,10.77
2022-08-23T06:49:14.987Z,9.93
2022-08-23T06:51:46.210Z,9.15
2022-08-23T06:54:14.494Z,11.07
2022-08-23T06:56:42.599Z,9.35
2022-08-23T06:59:09.425Z,13.95
2022-08-23T07:01:47.373Z,9.18
2022-08-23T07:04:20.374Z,10.02
2022-08-23T07:06:47.211Z,9.20
2022-08-23T07:09:13.884Z,8.65
2022-08-23T07:11:41.498Z,6.88
2022-08-23T07:14:11.182Z,7.97
2022-08-23T07:16:42.212Z,7.70
2022-08-23T07:19:09.190Z,8.63
2022-08-23T07:21:36.574Z,8.18
2022-08-23T07:24:03.919Z,8.27
2022-08-23T07:26:31.313Z,9.55
2022-08-23T07:28:58.163Z,6.78
2022-08-23T07:31:28.399Z,6.63
2022-08-23T07:33:58.788Z,6.57
2022-08-23T07:36:28.359Z,6.93
2022-08-23T07:38:56.206Z,6.20
2022-08-23T07:41:24.759Z,6.85
2022-08-23T07:43:51.325Z,6.25
2022-08-23T07:46:18.283Z,6.43
2022-08-23T07:48:53.835Z,6.60
2022-08-23T07:51:20.808Z,6.20
2022-08-23T07:53:47.971Z,6.80
2022-08-23T07:56:16.440Z,6.38
2022-08-23T07:58:43.037Z,7.82
2022-08-23T08:01:12.540Z,7.28
2022-08-23T08:03:39.805Z,6.00
2022-08-23T08:06:12.576Z,11.32
2022-08-23T08:08:41.132Z,6.38
2022-08-23T08:11:09.308Z,6.97
2022-08-23T08:13:38.671Z,7.00
2022-08-23T08:16:05.500Z,6.00
2022-08-23T08:18:32.262Z,6.63
2022-08-23T08:20:58.964Z,5.68
2022-08-23T08:23:25.638Z,6.35
2022-08-23T08:26:06.317Z,6.63
2022-08-23T08:28:33.899Z,6.82
2022-08-23T08:31:00.456Z,7.22
2022-08-23T08:33:30.728Z,5.18
2022-08-23T08:38:30.578Z,5.27
2022-08-23T08:41:03.414Z,6.05
2022-08-23T08:43:58.714Z,6.53
2022-08-23T08:46:47.616Z,6.05
2022-08-23T08:49:31.985Z,4.82
2022-08-23T08:52:10.750Z,7.57
2022-08-23T08:54:38.724Z,6.88
2022-08-23T08:57:08.969Z,5.32
2022-08-23T08:59:51.351Z,5.78
2022-08-23T09:02:32.872Z,5.50
2022-08-23T09:05:08.261Z,5.10
2022-08-23T09:07:47.619Z,6.85
2022-08-23T09:10:20.129Z,4.75
2022-08-23T09:12:59.244Z,5.82
2022-08-23T09:15:36.357Z,4.85
2022-08-23T09:18:15.825Z,5.28
2022-08-23T09:20:44.084Z,4.95
2022-08-23T09:23:27.298Z,5.57
2022-08-23T09:25:59.870Z,5.53
2022-08-23T09:28:33.878Z,6.22
2022-08-23T09:31:00.651Z,6.13
2022-08-23T09:33:45.978Z,5.03
2022-08-23T09:36:15.541Z,5.85
2022-08-23T09:39:01.580Z,5.67
2022-08-23T09:41:43.624Z,4.85
2022-08-23T09:44:16.810Z,5.18
2022-08-23T09:46:43.431Z,4.60
2022-08-23T09:49:28.625Z,4.50
2022-08-23T09:51:58.816Z,3.38
2022-08-23T09:54:30.970Z,4.72
2022-08-23T09:57:04.369Z,4.22
2022-08-23T09:59:34.700Z,4.20
2022-08-23T10:04:29.081Z,5.50
2022-08-23T10:06:56.317Z,4.38
2022-08-23T10:09:32.736Z,4.22
2022-08-23T10:12:02.353Z,3.50
2022-08-23T10:14:31.161Z,3.15
2022-08-23T10:17:00.492Z,4.75
2022-08-23T10:19:44.678Z,3.30
2022-08-23T10:22:53.165Z,3.60
2022-08-23T10:25:24.785Z,4.00
2022-08-23T10:28:39.594Z,3.35
2022-08-23T10:31:12.003Z,3.60
2022-08-23T10:34:02.127Z,3.72
2022-08-23T10:36:38.623Z,4.32
2022-08-23T10:39:19.682Z,2.28
2022-08-23T10:42:31.690Z,3.08
2022-08-23T10:45:16.924Z,3.28
2022-08-23T10:48:04.181Z,3.38
2022-08-23T10:50:42.442Z,2.88
2022-08-23T10:53:15.856Z,2.90
2022-08-23T10:56:02.845Z,2.97
2022-08-23T10:58:58.267Z,3.00
2022-08-23T11:01:34.753Z,2.88
2022-08-23T11:04:06.114Z,1.98
2022-08-23T11:06:35.361Z,2.78
2022-08-23T11:09:21.740Z,4.25
2022-08-23T11:15:03.556Z,2.85
2022-08-23T11:17:43.818Z,2.33
2022-08-23T11:22:57.324Z,2.70
2022-08-23T11:25:23.752Z,2.05
2022-08-23T11:27:50.273Z,2.13
2022-08-23T11:30:34.981Z,1.77
2022-08-23T11:33:16.666Z,2.33
2022-08-23T11:36:09.092Z,2.05
2022-08-23T11:38:47.796Z,2.20
2022-08-23T11:41:20.349Z,2.03
2022-08-23T11:44:10.583Z,1.88
2022-08-23T11:49:20.913Z,1.83
2022-08-23T11:52:02.625Z,1.98
2022-08-23T11:54:55.700Z,1.98
2022-08-23T11:57:43.732Z,2.10
2022-08-23T12:00:29.417Z,2.00
2022-08-23T12:03:17.184Z,1.90
2022-08-23T12:05:52.511Z,1.80
2022-08-23T12:08:23.103Z,1.75
2022-08-23T12:10:51.088Z,2.70
2022-08-23T12:13:20.855Z,2.17
2022-08-23T12:16:17.515Z,1.75
2022-08-23T12:18:47.750Z,1.92
2022-08-23T12:24:13.586Z,1.88
2022-08-23T12:26:42.774Z,1.73
2022-08-23T12:29:09.165Z,1.45
2022-08-23T12:31:43.127Z,1.52
2022-08-23T12:34:32.999Z,1.98
2022-08-23T12:37:12.920Z,1.50
2022-08-23T12:39:50.128Z,1.52
2022-08-23T12:42:24.981Z,1.48
2022-08-23T12:45:12.950Z,1.92
2022-08-23T12:47:43.266Z,2.58
2022-08-23T12:50:15.900Z,1.58
2022-08-23T12:52:42.515Z,1.20
2022-08-23T12:55:19.433Z,1.52
2022-08-23T12:57:55.121Z,1.65
2022-08-23T13:00:33.954Z,1.83
2022-08-23T13:03:13.849Z,1.83
2022-08-23T13:06:08.699Z,2.22
2022-08-23T13:08:39.883Z,1.77
2022-08-23T13:11:08.931Z,1.52
2022-08-23T13:13:38.638Z,2.17
2022-08-23T13:16:41.337Z,2.03
2022-08-23T13:19:19.218Z,2.10
2022-08-23T13:21:45.758Z,2.03
2022-08-23T13:24:37.760Z,1.50
2022-08-23T13:27:27.256Z,1.60
2022-08-23T13:30:09.085Z,1.55
2022-08-23T13:32:45.237Z,1.35
2022-08-23T13:35:32.195Z,1.50
2022-08-23T13:38:08.330Z,1.52
2022-08-23T13:40:59.264Z,2.00
2022-08-23T13:43:31.515Z,1.50
2022-08-23T13:46:09.219Z,1.80
2022-08-23T13:48:37.545Z,1.80
2022-08-23T13:51:40.737Z,1.70
2022-08-23T13:54:10.849Z,1.23
2022-08-23T13:59:22.594Z,1.30
2022-08-23T14:01:52.505Z,1.73
2022-08-23T14:04:19.017Z,1.58
2022-08-23T14:06:48.694Z,1.75
2022-08-23T14:09:16.749Z,1.10
2022-08-23T14:11:43.789Z,1.20
2022-08-23T14:14:12.482Z,2.45
2022-08-23T14:16:40.174Z,1.73
2022-08-23T14:19:16.498Z,3.42
2022-08-23T14:21:46.779Z,1.45
2022-08-23T14:24:13.551Z,1.40
2022-08-23T14:26:51.733Z,1.40
2022-08-23T14:29:22.294Z,1.70
2022-08-23T14:31:50.791Z,1.77
2022-08-23T14:34:17.679Z,1.30
2022-08-23T14:38:00.235Z,1.48
2022-08-23T14:39:31.153Z,1.30
2022-08-23T14:41:58.282Z,1.15
2022-08-23T14:44:28.978Z,2.03
2022-08-23T14:46:56.848Z,1.15
2022-08-23T14:49:23.580Z,1.58
2022-08-23T14:51:51.132Z,1.20
2022-08-23T14:54:22.016Z,1.23
2022-08-23T14:56:51.735Z,1.17
2022-08-23T14:59:18.325Z,1.85
2022-08-23T15:01:47.360Z,1.15
2022-08-23T15:04:18.253Z,1.40
2022-08-23T15:07:06.903Z,1.27
2022-08-23T15:09:32.273Z,1.33
2022-08-23T15:14:46.496Z,1.30
2022-08-23T15:17:13.716Z,1.45
2022-08-23T15:19:40.436Z,1.73
2022-08-23T15:22:18.356Z,1.00
2022-08-23T15:24:47.766Z,1.10
2022-08-23T15:27:14.329Z,0.95
2022-08-23T15:29:40.792Z,1.10
2022-08-23T15:32:07.811Z,1.48
2022-08-23T15:34:36.937Z,0.87
2022-08-23T15:37:06.644Z,0.82
2022-08-23T15:39:33.270Z,1.80
2022-08-23T15:41:59.738Z,1.33
2022-08-23T15:44:26.283Z,1.48
2022-08-23T15:46:54.599Z,1.10
2022-08-23T15:49:23.828Z,0.90
2022-08-23T15:51:50.420Z,1.00
2022-08-23T15:54:16.910Z,1.40
2022-08-23T15:56:48.388Z,1.10
2022-08-23T15:59:18.409Z,1.05
2022-08-23T16:01:45.482Z,1.65
2022-08-23T16:04:12.322Z,0.75
2022-08-23T16:06:40.096Z,1.17
2022-08-23T16:09:12.586Z,0.90
2022-08-23T16:11:43.025Z,1.70
2022-08-23T16:14:09.779Z,1.05
2022-08-23T16:16:40.726Z,0.95
2022-08-23T16:19:09.027Z,2.05
2022-08-23T16:21:36.078Z,1.10
2022-08-23T16:24:02.838Z,1.30
2022-08-23T16:26:34.685Z,1.85
2022-08-23T16:29:03.448Z,0.80
2022-08-23T16:31:38.572Z,1.02
2022-08-23T16:34:09.619Z,1.23
2022-08-23T16:39:04.445Z,0.98
2022-08-23T16:41:31.040Z,0.85
2022-08-23T16:43:57.653Z,0.95
2022-08-23T16:46:24.530Z,1.00
2022-08-23T16:48:51.147Z,0.88
2022-08-23T16:51:18.121Z,1.02
2022-08-23T16:53:44.588Z,0.90
2022-08-23T16:56:22.257Z,0.80
2022-08-23T16:58:48.741Z,0.77
2022-08-23T17:01:19.574Z,1.15
2022-08-23T17:03:46.433Z,0.88
2022-08-23T17:06:13.151Z,1.08
2022-08-23T17:08:39.731Z,0.90
2022-08-23T17:11:09.892Z,1.17
2022-08-23T17:16:03.077Z,0.40
2022-08-23T17:18:29.746Z,0.90
2022-08-23T17:20:56.330Z,0.75
2022-08-23T17:23:25.930Z,0.95
2022-08-23T17:25:52.430Z,1.13
2022-08-23T17:28:19.055Z,1.08
2022-08-23T17:30:45.577Z,0.60
2022-08-23T17:33:12.116Z,1.20
2022-08-23T17:35:39.708Z,1.30
2022-08-23T17:38:07.172Z,0.80
2022-08-23T17:40:38.039Z,2.30
2022-08-23T17:43:06.228Z,1.73
2022-08-23T17:45:43.341Z,1.67
2022-08-23T17:48:11.284Z,1.60
2022-08-23T17:50:39.337Z,1.40
2022-08-23T17:53:06.817Z,1.80
2022-08-23T17:55:34.980Z,1.15
2022-08-23T17:58:03.989Z,1.10
2022-08-23T18:00:32.422Z,0.90
2022-08-23T18:02:59.295Z,1.08
2022-08-23T18:05:27.384Z,1.95
2022-08-23T18:07:53.905Z,1.40
2022-08-23T18:10:20.705Z,3.10
2022-08-23T18:12:47.307Z,1.55
2022-08-23T18:15:13.862Z,1.58
2022-08-23T18:17:40.523Z,1.50
2022-08-23T18:20:10.014Z,2.85
2022-08-23T18:22:37.343Z,2.30
2022-08-23T18:25:05.748Z,2.25
2022-08-23T18:27:50.747Z,2.78
2022-08-23T18:30:17.466Z,2.53
2022-08-23T18:32:44.753Z,3.00
2022-08-23T18:35:11.367Z,3.08
2022-08-23T18:37:37.984Z,3.17
2022-08-23T18:40:09.217Z,2.22
2022-08-23T18:42:36.662Z,2.63
2022-08-23T18:45:04.487Z,1.95
2022-08-23T18:47:30.948Z,2.63
2022-08-23T18:49:57.542Z,1.75
2022-08-23T18:52:24.111Z,2.10
2022-08-23T18:54:50.557Z,2.20
2022-08-23T18:57:17.826Z,1.25
2022-08-23T18:59:44.435Z,1.55
2022-08-23T19:02:11.361Z,1.80
2022-08-23T19:04:37.951Z,1.30
2022-08-23T19:07:05.108Z,1.50
2022-08-23T19:09:31.591Z,1.85
2022-08-23T19:12:00.238Z,1.60
2022-08-23T19:14:28.153Z,1.80
2022-08-23T19:16:55.197Z,1.80
2022-08-23T19:19:22.960Z,1.67
2022-08-23T19:21:50.219Z,1.73
2022-08-23T19:24:17.393Z,1.30
2022-08-23T19:26:47.451Z,1.88
2022-08-23T19:29:14.887Z,1.70
2022-08-23T19:31:47.771Z,1.65
2022-08-23T19:34:16.694Z,1.50
2022-08-23T19:36:47.368Z,1.50
2022-08-23T19:39:17.699Z,1.83
2022-08-23T19:41:44.773Z,1.75
2022-08-23T19:44:11.641Z,3.58
2022-08-23T19:46:42.077Z,1.95
2022-08-23T19:49:09.832Z,1.50
2022-08-23T19:51:36.655Z,1.67
2022-08-23T19:54:04.947Z,1.88
2022-08-23T19:56:50.444Z,2.33
2022-08-23T19:59:21.637Z,3.05
2022-08-23T20:01:49.732Z,2.00
2022-08-23T20:04:17.315Z,1.88
2022-08-23T20:06:43.852Z,2.15
2022-08-23T20:09:10.419Z,1.83
2022-08-23T20:11:37.143Z,1.70
2022-08-23T20:14:05.398Z,2.40
2022-08-23T20:16:32.762Z,1.98
2022-08-23T20:19:00.498Z,1.67
2022-08-23T20:21:27.636Z,2.15
2022-08-23T20:24:06.322Z,2.40
2022-08-23T20:26:34.493Z,1.80
2022-08-23T20:29:03.995Z,3.08
2022-08-23T20:31:35.009Z,2.00
2022-08-23T20:34:02.065Z,2.55
2022-08-23T20:36:29.247Z,1.75
2022-08-23T20:39:00.409Z,3.22
2022-08-23T20:41:29.615Z,2.80
2022-08-23T20:43:56.648Z,2.65
2022-08-23T20:46:23.257Z,2.45
2022-08-23T20:48:51.633Z,2.65
2022-08-23T20:51:19.473Z,2.53
2022-08-23T20:53:46.828Z,2.38
2022-08-23T20:56:13.472Z,2.67
2022-08-23T20:58:40.304Z,2.95
2022-08-23T21:01:09.336Z,2.85
2022-08-23T21:03:38.257Z,3.05
2022-08-23T21:06:20.158Z,3.30
2022-08-23T21:08:53.986Z,2.88
2022-08-23T21:11:21.900Z,2.88
2022-08-23T21:13:48.664Z,3.38
2022-08-23T21:16:16.779Z,2.90
2022-08-23T21:18:43.740Z,3.00
2022-08-23T21:21:10.732Z,3.10
2022-08-23T21:23:37.916Z,3.20
2022-08-23T21:26:05.705Z,2.97
2022-08-23T21:28:32.766Z,3.15
2022-08-23T21:31:12.584Z,2.78
2022-08-23T21:33:40.580Z,3.33
2022-08-23T21:36:08.148Z,3.40
2022-08-23T21:38:34.764Z,2.67
2022-08-23T21:41:05.091Z,3.00
2022-08-23T21:43:32.829Z,3.50
2022-08-23T21:45:59.435Z,4.05
2022-08-23T21:48:26.088Z,4.35
2022-08-23T21:50:54.088Z,3.53
2022-08-23T21:53:20.684Z,3.75
2022-08-23T21:55:47.145Z,4.07
2022-08-23T21:58:13.987Z,3.72
2022-08-23T22:00:41.255Z,4.15
2022-08-23T22:03:09.082Z,4.43
2022-08-23T22:05:40.538Z,5.20
2022-08-23T22:08:07.071Z,4.63
2022-08-23T22:10:36.996Z,3.40
2022-08-23T22:13:05.555Z,4.13
2022-08-23T22:15:33.208Z,4.82
2022-08-23T22:18:00.622Z,4.70
2022-08-23T22:20:28.488Z,4.13
2022-08-23T22:22:55.014Z,4.55
2022-08-23T22:25:21.544Z,4.00
2022-08-23T22:27:48.047Z,5.35
2022-08-23T22:30:15.612Z,4.47
2022-08-23T22:32:42.776Z,4.47
2022-08-23T22:35:11.390Z,3.70
2022-08-23T22:37:49.429Z,3.83
2022-08-23T22:40:25.240Z,3.97
2022-08-23T22:42:51.756Z,3.38
2022-08-23T22:45:19.010Z,4.32
2022-08-23T22:47:45.516Z,3.42
2022-08-23T22:50:12.437Z,3.70
2022-08-23T22:52:40.360Z,3.72
2022-08-23T22:55:07.138Z,4.55
2022-08-23T22:57:33.679Z,5.13
2022-08-23T23:00:05.792Z,6.07
2022-08-23T23:02:37.785Z,5.60
2022-08-23T23:05:05.234Z,5.15
2022-08-23T23:07:50.236Z,6.13
2022-08-23T23:10:16.978Z,5.57
2022-08-23T23:12:43.424Z,5.53
2022-08-23T23:15:10.215Z,6.10
2022-08-23T23:17:36.710Z,4.95
2022-08-23T23:20:23.324Z,5.32
2022-08-23T23:22:51.157Z,5.63
2022-08-23T23:25:17.888Z,4.88
2022-08-23T23:27:45.060Z,5.43
2022-08-23T23:30:11.921Z,4.55
2022-08-23T23:32:38.605Z,4.78
2022-08-23T23:35:07.349Z,4.78
2022-08-23T23:37:33.803Z,4.93
2022-08-23T23:40:00.418Z,5.60
2022-08-23T23:42:27.007Z,4.80
2022-08-23T23:44:53.504Z,4.05
2022-08-23T23:47:20.030Z,5.03
2022-08-23T23:49:47.332Z,4.18
2022-08-23T23:52:13.822Z,4.32
2022-08-23T23:54:41.210Z,4.18
2022-08-23T23:57:08.072Z,4.50
2022-08-23T23:59:35.052Z,5.35
